Time;durP1;ratioP1;P1;durP2;ratioP2;P2;SDS_P1;SDS_P2;PMS_P1;PMS_P2;Temp;Humidity;BMP_temperature;BMP_pressure;BME280_temperature;BME280_humidity;BME280_pressure;Samples;Min_cycle;Max_cycle;Signal;HPM_P1;HPM_P2
2022/11/30 04:59:31;;;;;;;20.77;13.85;;;;;;;7.00;76.79;101190.22;5640008;31;28787;-54
2022/11/30 05:02:33;;;;;;;22.13;13.93;;;;;;;7.20;74.06;101184.47;5623365;31;33354;-55
2022/11/30 05:05:35;;;;;;;20.92;14.73;;;;;;;7.09;70.29;101190.69;5623547;31;32985;-54
2022/11/30 05:08:37;;;;;;;20.65;13.20;;;;;;;7.59;86.50;101193.47;5623465;31;33682;-54
2022/11/30 05:11:40;;;;;;;19.30;12.93;;;;;;;7.26;67.21;101191.53;5623381;31;33685;-55
2022/11/30 05:14:42;;;;;;;21.70;13.57;;;;;;;7.30;70.36;101193.47;5623421;31;33473;-55
2022/11/30 05:17:44;;;;;;;20.10;13.32;;;;;;;7.25;70.22;101192.56;5623484;31;33570;-55
2022/11/30 05:20:50;;;;;;;21.12;13.32;;;;;;;7.48;77.56;101197.00;5623336;31;34369;-54
2022/11/30 05:23:52;;;;;;;21.90;13.13;;;;;;;7.33;66.97;101194.88;5623103;31;33554;-55
2022/11/30 05:26:54;;;;;;;18.12;12.40;;;;;;;7.53;70.31;101199.75;5623273;31;33651;-55
2022/11/30 05:29:57;;;;;;;19.98;12.30;;;;;;;7.46;69.16;101207.09;5622825;31;33449;-55
2022/11/30 05:33:00;;;;;;;18.23;12.65;;;;;;;7.82;80.07;101202.41;5623131;31;33718;-55
2022/11/30 05:36:02;;;;;;;18.27;12.57;;;;;;;7.88;73.12;101209.41;5623272;31;33363;-55
2022/11/30 05:39:11;;;;;;;19.12;12.55;;;;;;;8.12;81.96;101207.44;5623064;31;33938;-55
2022/11/30 05:42:13;;;;;;;17.83;12.95;;;;;;;7.81;66.10;101204.25;5622839;31;34308;-55
2022/11/30 05:45:16;;;;;;;17.85;12.68;;;;;;;8.05;84.28;101207.59;5607846;31;33255;-55
2022/11/30 05:48:18;;;;;;;20.05;12.25;;;;;;;7.71;73.36;101212.87;5622699;31;34284;-57
2022/11/30 05:51:20;;;;;;;19.62;12.85;;;;;;;7.83;74.65;101204.81;5611273;31;33579;-54
2022/11/30 05:54:23;;;;;;;20.27;12.60;;;;;;;7.69;63.39;101203.50;5616598;31;33769;-55
2022/11/30 05:57:25;;;;;;;23.58;12.95;;;;;;;7.64;72.91;101203.41;5617455;31;33847;-55
2022/11/30 06:00:27;;;;;;;19.25;12.63;;;;;;;7.42;65.08;101200.63;5622184;31;33987;-55
2022/11/30 06:03:32;;;;;;;20.00;12.60;;;;;;;7.70;82.33;101205.12;5611134;31;33674;-55
2022/11/30 06:06:34;;;;;;;18.45;12.00;;;;;;;7.69;64.79;101206.19;5603080;31;34297;-55
2022/11/30 06:09:38;;;;;;;19.17;12.27;;;;;;;7.48;65.37;101208.50;5609733;31;33601;-55
2022/11/30 06:12:40;;;;;;;17.80;12.10;;;;;;;7.76;84.63;101210.31;5595551;31;33913;-55
2022/11/30 06:15:42;;;;;;;16.33;12.13;;;;;;;7.91;70.84;101216.94;5592536;31;34242;-54
2022/11/30 06:18:44;;;;;;;17.20;11.32;;;;;;;7.91;80.13;101207.09;5598288;31;34362;-55
2022/11/30 06:21:47;;;;;;;17.20;11.32;;;;;;;7.92;65.54;101223.94;5595824;31;34289;-55
2022/11/30 06:24:49;;;;;;;17.33;11.48;;;;;;;7.61;70.22;101227.91;5604203;31;34608;-56
2022/11/30 06:27:51;;;;;;;21.98;11.63;;;;;;;7.47;75.59;101222.88;5599842;31;33206;-55
2022/11/30 06:30:58;;;;;;;21.17;10.93;;;;;;;7.52;67.42;101236.31;5602227;31;34196;-55
2022/11/30 06:34:00;;;;;;;15.55;10.45;;;;;;;7.51;65.33;101236.53;5589081;31;33324;-55
2022/11/30 06:37:02;;;;;;;15.40;10.55;;;;;;;7.68;65.34;101234.75;5601631;31;34193;-55
2022/11/30 06:40:06;;;;;;;14.63;9.55;;;;;;;7.66;63.08;101236.03;5602592;31;33238;-55
2022/11/30 06:43:09;;;;;;;16.75;10.77;;;;;;;7.98;74.92;101247.00;5599786;31;33670;-54
2022/11/30 06:46:11;;;;;;;16.62;10.75;;;;;;;8.19;79.13;101246.25;5592381;31;34466;-55
2022/11/30 06:49:13;;;;;;;16.60;10.52;;;;;;;7.89;61.36;101243.91;5600389;31;34366;-56
2022/11/30 06:52:16;;;;;;;18.33;10.15;;;;;;;7.85;74.91;101237.44;5605868;31;33376;-55
2022/11/30 06:55:18;;;;;;;15.95;10.57;;;;;;;7.92;65.54;101246.09;5591223;31;33711;-55
2022/11/30 06:58:21;;;;;;;18.85;10.50;;;;;;;7.53;61.64;101243.25;5603127;31;33653;-55
2022/11/30 07:01:23;;;;;;;17.37;10.35;;;;;;;7.52;61.92;101246.97;5604479;31;32031;-55
2022/11/30 07:04:25;;;;;;;20.00;11.52;;;;;;;7.42;62.21;101238.00;5594119;31;33626;-54
2022/11/30 07:07:29;;;;;;;15.52;9.65;;;;;;;7.69;67.09;101241.69;5603392;31;33747;-55
2022/11/30 07:10:31;;;;;;;15.32;10.30;;;;;;;7.34;62.55;101236.47;5602737;31;33243;-55
2022/11/30 07:13:34;;;;;;;17.17;10.02;;;;;;;7.52;64.87;101246.19;5602907;31;33802;-55
2022/11/30 07:16:37;;;;;;;17.45;10.57;;;;;;;7.53;77.98;101242.44;5595508;31;33590;-56
2022/11/30 07:19:39;;;;;;;16.73;10.55;;;;;;;7.51;72.83;101228.53;5589487;31;34311;-55
2022/11/30 07:22:42;;;;;;;18.25;11.35;;;;;;;7.56;62.40;101235.84;5598279;31;33576;-55
2022/11/30 07:29:06;;;;;;;20.15;10.43;;;;;;;7.87;74.85;101235.31;5602249;31;33803;-56
2022/11/30 07:32:08;;;;;;;15.77;10.38;;;;;;;7.71;64.56;101233.44;5596439;31;33798;-55
2022/11/30 07:35:11;;;;;;;13.90;9.20;;;;;;;8.02;65.28;101242.78;5608523;31;33676;-55
2022/11/30 07:38:13;;;;;;;16.52;9.25;;;;;;;7.72;62.23;101235.88;5601918;31;34334;-55
2022/11/30 07:41:16;;;;;;;13.02;9.80;;;;;;;7.60;59.95;101237.78;5594653;31;33597;-55
2022/11/30 07:44:19;;;;;;;15.00;8.80;;;;;;;7.76;61.38;101226.31;5583197;31;33126;-55
2022/11/30 07:47:21;;;;;;;12.23;8.52;;;;;;;7.68;58.84;101228.56;5605424;31;33552;-55
2022/11/30 07:50:23;;;;;;;15.43;8.48;;;;;;;7.56;58.90;101231.31;5596608;31;33671;-55
2022/11/30 07:53:26;;;;;;;14.60;8.63;;;;;;;7.62;60.33;101229.53;5594008;31;33637;-55
2022/11/30 07:56:28;;;;;;;12.88;8.80;;;;;;;7.71;58.79;101242.22;5596857;31;34238;-55
2022/11/30 07:59:31;;;;;;;12.85;8.80;;;;;;;7.99;67.11;101240.59;5594699;31;33743;-55
2022/11/30 08:02:33;;;;;;;13.02;8.10;;;;;;;7.87;58.28;101226.50;5602264;31;34202;-55
2022/11/30 08:05:35;;;;;;;15.00;8.63;;;;;;;8.12;61.77;101231.47;5595636;31;33621;-55
2022/11/30 08:08:40;;;;;;;14.32;8.38;;;;;;;8.05;60.04;101238.84;5588238;31;33640;-55
2022/11/30 08:11:42;;;;;;;13.65;8.68;;;;;;;8.39;65.50;101240.47;5594369;31;33583;-55
2022/11/30 08:14:44;;;;;;;12.50;8.32;;;;;;;8.61;70.56;101237.03;5595226;31;33678;-55
2022/11/30 08:18:06;;;;;;;15.65;8.98;;;;;;;8.58;64.61;101232.19;5596895;31;33727;-55
2022/11/30 08:21:12;;;;;;;13.65;8.40;;;;;;;8.69;68.16;101239.28;5595152;31;34303;-55
2022/11/30 08:24:14;;;;;;;12.83;8.00;;;;;;;8.62;75.20;101242.12;5595678;31;34278;-55
2022/11/30 08:27:17;;;;;;;14.07;8.73;;;;;;;8.60;56.14;101235.41;5595008;31;33912;-55
2022/11/30 08:30:19;;;;;;;14.87;9.52;;;;;;;8.50;57.02;101235.25;5605687;31;33629;-55
2022/11/30 08:33:21;;;;;;;17.37;8.85;;;;;;;8.92;81.24;101235.59;5601328;31;34260;-55
2022/11/30 08:36:25;;;;;;;13.23;9.18;;;;;;;9.20;67.87;101229.22;5596373;31;34316;-55
2022/11/30 08:39:30;;;;;;;11.88;8.20;;;;;;;9.16;58.09;101217.41;5596203;31;34222;-55
2022/11/30 08:42:32;;;;;;;13.77;9.23;;;;;;;8.98;68.95;101217.75;5605722;31;33329;-56
2022/11/30 08:45:34;;;;;;;15.43;8.73;;;;;;;8.91;59.07;101216.06;5605933;31;34510;-55
2022/11/30 08:48:37;;;;;;;15.32;8.55;;;;;;;8.99;66.22;101222.03;5606437;31;33605;-54
2022/11/30 08:51:39;;;;;;;13.70;8.82;;;;;;;8.85;65.10;101217.06;5602274;31;33685;-55
2022/11/30 08:55:02;;;;;;;11.90;8.23;;;;;;;8.85;66.38;101221.59;5596420;31;34750;-55
2022/11/30 08:58:04;;;;;;;12.25;9.20;;;;;;;8.77;56.48;101220.13;5601206;31;33989;-57
2022/11/30 09:01:27;;;;;;;13.60;9.15;;;;;;;8.87;63.60;101220.28;5605492;31;33360;-55
2022/11/30 09:04:34;;;;;;;15.80;8.65;;;;;;;8.51;54.95;101220.84;5587856;31;33711;-55
2022/11/30 09:07:36;;;;;;;13.18;8.80;;;;;;;8.64;55.95;101215.16;5595196;31;33932;-55
2022/11/30 09:10:38;;;;;;;14.05;8.80;;;;;;;8.50;55.77;101219.22;5601471;31;33580;-56
2022/11/30 09:13:42;;;;;;;14.68;9.15;;;;;;;8.22;57.27;101226.28;5598556;31;33762;-55
2022/11/30 09:16:44;;;;;;;12.73;8.35;;;;;;;8.32;58.96;101218.41;5594257;31;33755;-54
2022/11/30 09:19:47;;;;;;;13.60;8.75;;;;;;;8.35;55.10;101223.28;5599324;31;34217;-55
2022/11/30 09:22:49;;;;;;;14.80;8.25;;;;;;;8.25;56.03;101225.78;5593813;31;33609;-55
2022/11/30 09:25:59;;;;;;;13.27;8.32;;;;;;;8.08;58.95;101224.97;5592808;31;34420;-56
2022/11/30 09:29:02;;;;;;;14.27;9.18;;;;;;;8.00;55.76;101220.84;5596374;31;33847;-56
2022/11/30 09:32:05;;;;;;;14.32;8.48;;;;;;;8.48;56.87;101227.50;5603053;31;33323;-55
2022/11/30 09:35:07;;;;;;;15.27;8.65;;;;;;;8.51;69.52;101221.69;5593518;31;34223;-55
2022/11/30 09:38:14;;;;;;;14.80;8.48;;;;;;;8.46;56.53;101226.94;5595842;31;33299;-55
2022/11/30 09:41:55;;;;;;;16.27;8.73;;;;;;;8.87;66.86;101222.97;5597527;31;33639;-55
2022/11/30 09:45:18;;;;;;;15.05;8.80;;;;;;;8.90;58.43;101229.66;5571142;31;33509;-55
2022/11/30 09:48:31;;;;;;;12.05;7.68;;;;;;;8.86;56.99;101220.53;5602037;31;33804;-55
2022/11/30 09:51:48;;;;;;;11.32;8.25;;;;;;;9.26;67.32;101230.09;5602219;31;34365;-55
2022/11/30 09:54:50;;;;;;;13.50;8.20;;;;;;;9.43;61.52;101217.44;5602633;31;34348;-55
2022/11/30 09:58:00;;;;;;;15.38;7.95;;;;;;;9.56;59.17;101217.03;5599958;31;33678;-55
2022/11/30 10:01:12;;;;;;;14.05;8.15;;;;;;;9.51;57.93;101208.97;5606437;31;33736;-56
2022/11/30 10:04:25;;;;;;;13.45;8.18;;;;;;;9.79;68.77;101218.59;5600453;31;33627;-55
2022/11/30 10:07:39;;;;;;;12.93;8.68;;;;;;;9.75;66.58;101211.34;5600691;31;33758;-55
2022/11/30 10:10:44;;;;;;;14.95;9.02;;;;;;;9.93;75.86;101212.81;5588659;31;34341;-55
2022/11/30 10:14:16;;;;;;;15.40;8.52;;;;;;;9.58;52.15;101206.91;5597782;31;34345;-55
2022/11/30 10:17:29;;;;;;;17.73;8.90;;;;;;;9.79;65.56;101213.25;5608836;31;33754;-56
2022/11/30 10:20:50;;;;;;;15.30;9.00;;;;;;;9.64;54.41;101210.44;5609067;31;34273;-56
2022/11/30 10:23:59;;;;;;;17.05;9.05;;;;;;;9.65;55.83;101199.47;5606737;31;33723;-55
2022/11/30 10:27:15;;;;;;;19.27;9.88;;;;;;;9.60;58.09;101188.72;5607812;31;33728;-55
2022/11/30 10:30:23;;;;;;;15.70;9.85;;;;;;;9.55;59.01;101183.31;5609375;31;34360;-55
2022/11/30 10:33:34;;;;;;;17.58;8.98;;;;;;;9.34;54.11;101174.28;5608472;31;34291;-55
2022/11/30 10:36:45;;;;;;;13.73;8.50;;;;;;;9.25;59.66;101175.78;5608589;31;33884;-55
2022/11/30 10:40:04;;;;;;;14.55;8.98;;;;;;;9.85;69.96;101187.31;5601366;31;33907;-55
2022/11/30 10:43:12;;;;;;;13.73;8.90;;;;;;;9.58;66.47;101177.44;5602258;31;33742;-55
2022/11/30 10:46:21;;;;;;;16.42;8.93;;;;;;;9.23;53.90;101172.53;5608606;31;33668;-55
2022/11/30 10:49:26;;;;;;;12.85;9.20;;;;;;;9.04;54.72;101176.59;5607842;31;33811;-55
2022/11/30 10:52:36;;;;;;;11.90;8.85;;;;;;;9.03;55.88;101186.50;5605140;31;34346;-56
2022/11/30 10:55:43;;;;;;;13.95;9.02;;;;;;;9.41;75.90;101182.13;5605928;31;34351;-55
2022/11/30 10:58:45;;;;;;;13.38;9.23;;;;;;;9.12;66.34;101165.47;5600820;31;33815;-54
2022/11/30 11:01:48;;;;;;;14.10;8.55;;;;;;;9.08;54.38;101170.53;5608808;31;33706;-55
2022/11/30 11:05:07;;;;;;;14.98;9.02;;;;;;;9.10;58.82;101175.59;5595380;31;34234;-55
2022/11/30 11:08:23;;;;;;;17.00;9.02;;;;;;;9.40;62.70;101169.78;5587785;31;33919;-54
2022/11/30 11:11:36;;;;;;;14.05;8.48;;;;;;;9.54;56.54;101164.84;5602001;31;34532;-55
2022/11/30 11:14:40;;;;;;;11.32;7.93;;;;;;;9.93;63.37;101167.28;5597129;31;34281;-55
2022/11/30 11:17:42;;;;;;;12.02;8.32;;;;;;;9.74;58.02;101174.94;5602190;31;33667;-55
2022/11/30 11:20:45;;;;;;;12.77;8.25;;;;;;;9.97;63.43;101165.75;5574190;31;33675;-54
2022/11/30 11:23:53;;;;;;;11.35;8.05;;;;;;;9.56;60.08;101173.41;5591971;31;33688;-56
2022/11/30 11:26:56;;;;;;;14.30;8.32;;;;;;;9.47;59.96;101159.69;5602752;31;34479;-55
2022/11/30 11:30:28;;;;;;;14.30;8.27;;;;;;;9.72;61.54;101177.84;5596061;31;34342;-54
2022/11/30 11:33:31;;;;;;;15.43;8.90;;;;;;;9.49;55.08;101164.78;5600598;31;33796;-55
2022/11/30 11:36:35;;;;;;;11.18;7.60;;;;;;;9.51;54.24;101171.50;5606539;31;33781;-55
2022/11/30 11:39:38;;;;;;;12.77;7.87;;;;;;;9.70;66.22;101166.59;5599660;31;33736;-55
2022/11/30 11:42:46;;;;;;;11.70;8.02;;;;;;;9.61;58.12;101170.78;5607944;31;33159;-55
2022/11/30 11:45:52;;;;;;;13.43;8.18;;;;;;;9.96;75.20;101166.78;5597765;31;33280;-54
2022/11/30 11:49:00;;;;;;;11.47;7.47;;;;;;;10.07;72.46;101173.84;5601116;31;33683;-56
2022/11/30 11:52:12;;;;;;;13.50;7.47;;;;;;;10.37;71.97;101175.16;5600516;31;33668;-55
2022/11/30 11:55:18;;;;;;;11.90;7.62;;;;;;;10.51;61.00;101169.03;5596512;31;33239;-54
2022/11/30 11:58:34;;;;;;;11.52;7.70;;;;;;;10.29;63.39;101177.22;5606940;31;33776;-55
2022/11/30 12:01:48;;;;;;;14.23;8.27;;;;;;;10.35;73.54;101186.91;5607972;31;33806;-55
2022/11/30 12:04:56;;;;;;;12.45;8.63;;;;;;;9.87;52.79;101172.63;5605902;31;33746;-55
2022/11/30 12:08:09;;;;;;;11.80;8.50;;;;;;;9.95;53.92;101157.12;5607536;31;33201;-55
2022/11/30 12:11:24;;;;;;;13.45;7.93;;;;;;;9.92;61.23;101154.97;5607667;31;33780;-55
2022/11/30 12:14:26;;;;;;;13.25;7.47;;;;;;;9.84;60.56;101151.72;5607737;31;34369;-55
2022/11/30 12:17:51;;;;;;;12.37;8.18;;;;;;;9.93;59.91;101160.06;5598582;31;33846;-55
2022/11/30 12:21:11;;;;;;;11.10;7.22;;;;;;;10.19;70.06;101157.56;5595845;31;33903;-55
2022/11/30 12:24:51;;;;;;;12.35;7.55;;;;;;;10.14;61.52;101153.00;5601711;31;33774;-56
2022/11/30 12:28:21;;;;;;;8.50;5.20;;;;;;;10.23;60.03;101158.66;5593807;31;34488;-55
2022/11/30 12:31:38;;;;;;;9.07;5.30;;;;;;;10.19;57.22;101149.53;5604942;31;33594;-55
2022/11/30 12:35:11;;;;;;;8.18;4.93;;;;;;;10.30;65.68;101144.00;5595243;31;33623;-55
2022/11/30 12:38:39;;;;;;;8.05;5.20;;;;;;;10.20;54.12;101145.78;5589896;31;33885;-55
2022/11/30 12:41:47;;;;;;;16.37;6.12;;;;;;;10.46;60.47;101144.06;5602553;31;33757;-55
2022/11/30 12:45:05;;;;;;;8.80;5.03;;;;;;;10.47;52.83;101141.16;5600701;31;33721;-56
2022/11/30 12:48:46;;;;;;;9.25;4.60;;;;;;;10.49;65.36;101151.59;5598720;31;33644;-55
2022/11/30 12:52:01;;;;;;;8.77;5.18;;;;;;;10.49;55.22;101148.91;5596780;31;33669;-55
2022/11/30 12:55:36;;;;;;;9.63;5.05;;;;;;;10.39;60.69;101146.19;5603070;31;34344;-55
2022/11/30 12:58:55;;;;;;;11.40;4.87;;;;;;;10.50;56.55;101142.50;5592788;31;35393;-55
2022/11/30 13:02:28;;;;;;;9.90;4.57;;;;;;;10.47;53.70;101135.00;5595964;31;33517;-55
2022/11/30 13:05:43;;;;;;;8.45;4.90;;;;;;;10.31;51.41;101137.56;5606477;31;34323;-55
2022/11/30 13:08:56;;;;;;;9.40;4.45;;;;;;;10.31;57.33;101128.75;5606164;31;34135;-55
2022/11/30 13:12:06;;;;;;;7.85;4.82;;;;;;;10.39;54.54;101133.59;5598965;31;34358;-55
2022/11/30 13:15:08;;;;;;;9.40;5.15;;;;;;;10.36;58.56;101139.47;5605616;31;33685;-55
2022/11/30 13:18:22;;;;;;;12.88;5.10;;;;;;;10.50;68.47;101134.47;5596328;31;33807;-55
2022/11/30 13:21:48;;;;;;;9.90;4.78;;;;;;;10.50;62.41;101132.59;5599182;31;34291;-55
2022/11/30 13:25:10;;;;;;;8.10;5.22;;;;;;;10.61;57.29;101136.13;5606388;31;33934;-55
2022/11/30 13:28:23;;;;;;;8.15;4.93;;;;;;;10.29;57.10;101133.53;5601155;31;33621;-55
2022/11/30 13:31:32;;;;;;;9.85;5.35;;;;;;;10.44;57.12;101141.66;5609123;31;33725;-55
2022/11/30 13:34:35;;;;;;;9.38;5.30;;;;;;;10.49;64.05;101140.88;5605864;31;34320;-55
2022/11/30 13:37:37;;;;;;;8.82;5.00;;;;;;;10.36;54.28;101150.19;5607750;31;33334;-55
2022/11/30 13:40:39;;;;;;;9.75;4.60;;;;;;;10.29;66.31;101144.25;5593284;31;34226;-55
2022/11/30 13:43:46;;;;;;;10.07;4.30;;;;;;;10.48;62.36;101142.75;5608950;31;33758;-55
2022/11/30 13:46:51;;;;;;;9.07;4.80;;;;;;;10.46;64.22;101146.75;5609289;31;33791;-55
2022/11/30 13:50:07;;;;;;;6.87;4.30;;;;;;;10.56;58.50;101149.50;5609882;31;33706;-55
2022/11/30 13:53:28;;;;;;;6.28;4.15;;;;;;;10.49;58.21;101147.03;5609402;31;34410;-56
2022/11/30 13:56:33;;;;;;;8.30;3.95;;;;;;;10.43;53.42;101150.78;5608191;31;33587;-55
2022/11/30 13:59:45;;;;;;;9.40;4.37;;;;;;;10.38;61.19;101153.44;5606217;31;34338;-55
2022/11/30 14:02:52;;;;;;;7.53;4.45;;;;;;;10.43;59.47;101153.47;5608264;31;34331;-54
2022/11/30 14:05:57;;;;;;;7.97;4.80;;;;;;;10.39;59.49;101154.22;5605986;31;33646;-55
2022/11/30 14:08:59;;;;;;;8.20;4.50;;;;;;;10.47;60.61;101151.06;5598706;31;34316;-55
2022/11/30 14:12:30;;;;;;;8.70;4.30;;;;;;;10.35;64.90;101149.37;5598962;31;33726;-55
2022/11/30 14:15:38;;;;;;;7.10;4.37;;;;;;;10.18;62.65;101155.97;5594407;31;33337;-55
2022/11/30 14:18:45;;;;;;;7.55;4.50;;;;;;;9.92;58.47;101158.44;5595458;31;33716;-54
2022/11/30 14:21:47;;;;;;;8.02;4.90;;;;;;;9.99;55.53;101155.56;5597617;31;34315;-55
2022/11/30 14:24:52;;;;;;;12.30;4.15;;;;;;;10.05;60.55;101152.66;5609073;31;33646;-55
2022/11/30 14:27:56;;;;;;;9.15;4.47;;;;;;;10.10;52.45;101152.69;5602669;31;34736;-54
2022/11/30 14:30:59;;;;;;;7.95;4.70;;;;;;;10.10;56.81;101149.22;5608693;31;33740;-55
2022/11/30 14:34:10;;;;;;;7.57;4.00;;;;;;;10.09;64.71;101144.91;5609516;31;34216;-54
2022/11/30 14:37:30;;;;;;;6.95;4.32;;;;;;;10.21;58.34;101148.22;5609529;31;33833;-55
2022/11/30 14:40:32;;;;;;;8.38;4.30;;;;;;;9.97;58.49;101155.03;5590138;31;33805;-55
2022/11/30 14:43:35;;;;;;;11.02;4.35;;;;;;;9.98;52.32;101156.63;5589470;31;33771;-55
2022/11/30 14:46:37;;;;;;;10.52;5.07;;;;;;;10.06;56.04;101148.91;5594128;31;34236;-54
2022/11/30 14:49:47;;;;;;;9.45;4.25;;;;;;;9.81;58.54;101149.53;5588950;31;33787;-55
2022/11/30 14:53:14;;;;;;;8.27;5.18;;;;;;;9.93;57.27;101141.31;5589379;31;34347;-54
2022/11/30 14:56:35;;;;;;;8.32;4.65;;;;;;;9.92;55.22;101134.34;5589540;31;33636;-56
2022/11/30 14:59:48;;;;;;;9.73;5.10;;;;;;;9.99;57.89;101134.94;5589536;31;33732;-55
2022/11/30 15:02:50;;;;;;;8.02;4.37;;;;;;;10.15;55.39;101143.88;5589483;31;33765;-56
2022/11/30 15:05:56;;;;;;;11.30;5.95;;;;;;;9.85;54.41;101139.91;5589599;31;33784;-55
2022/11/30 15:09:00;;;;;;;13.10;4.72;;;;;;;9.77;51.99;101132.37;5589594;31;33731;-55
2022/11/30 15:12:02;;;;;;;10.55;5.03;;;;;;;9.82;52.72;101132.41;5589611;31;33793;-55
2022/11/30 15:15:16;;;;;;;13.85;5.62;;;;;;;9.89;55.62;101138.34;5589430;31;33875;-55
2022/11/30 15:18:21;;;;;;;9.57;4.95;;;;;;;9.99;52.24;101137.59;5589564;31;33747;-56
2022/11/30 15:21:27;;;;;;;7.93;4.22;;;;;;;9.75;53.14;101139.03;5589390;31;33793;-55
2022/11/30 15:24:29;;;;;;;6.37;4.27;;;;;;;9.89;52.10;101137.53;5589414;31;34358;-55
2022/11/30 15:27:32;;;;;;;6.53;4.50;;;;;;;9.85;52.40;101139.91;5589514;31;33539;-55
2022/11/30 15:30:37;;;;;;;8.30;5.00;;;;;;;9.85;63.08;101145.28;5589472;31;33615;-55
2022/11/30 15:33:44;;;;;;;9.97;4.17;;;;;;;9.77;50.27;101139.59;5589403;31;34230;-56
2022/11/30 15:36:46;;;;;;;8.55;4.40;;;;;;;9.65;50.13;101139.75;5588962;31;33650;-55
2022/11/30 15:39:54;;;;;;;8.68;4.55;;;;;;;9.58;56.30;101141.84;5589296;31;34043;-55
2022/11/30 15:42:58;;;;;;;7.07;4.40;;;;;;;9.63;53.03;101148.06;5588024;31;34414;-55
2022/11/30 15:46:00;;;;;;;9.13;4.37;;;;;;;9.77;54.54;101143.09;5589185;31;34377;-55
2022/11/30 15:49:05;;;;;;;7.45;4.40;;;;;;;9.77;54.23;101136.94;5589016;31;33652;-55
2022/11/30 15:52:11;;;;;;;8.47;4.77;;;;;;;9.83;62.69;101146.59;5588966;31;34011;-55
2022/11/30 15:55:39;;;;;;;7.28;4.10;;;;;;;9.80;64.64;101142.56;5589124;31;35310;-55
2022/11/30 15:58:57;;;;;;;13.98;4.18;;;;;;;9.68;50.96;101133.09;5588946;31;33680;-55
2022/11/30 16:02:12;;;;;;;7.80;4.07;;;;;;;9.64;55.59;101133.59;5589119;31;33719;-55
2022/11/30 16:05:16;;;;;;;7.00;4.30;;;;;;;9.83;48.47;101134.03;5589146;31;33782;-55
2022/11/30 16:08:18;;;;;;;9.45;4.72;;;;;;;9.58;49.32;101131.94;5589107;31;33728;-55
2022/11/30 16:11:21;;;;;;;11.65;4.15;;;;;;;9.37;49.27;101136.31;5589061;31;33660;-55
2022/11/30 16:14:23;;;;;;;7.45;4.20;;;;;;;9.42;51.15;101138.22;5588961;31;33620;-55
2022/11/30 16:17:27;;;;;;;10.40;4.20;;;;;;;9.31;51.99;101137.31;5588993;31;33713;-55
2022/11/30 16:20:29;;;;;;;9.25;4.25;;;;;;;9.23;52.19;101136.97;5588860;31;34136;-55
2022/11/30 16:23:34;;;;;;;7.15;4.22;;;;;;;9.18;57.20;101135.84;5588978;31;33585;-55
2022/11/30 16:26:36;;;;;;;9.38;4.47;;;;;;;9.38;50.74;101143.28;5588814;31;33612;-55
2022/11/30 16:29:54;;;;;;;9.07;5.18;;;;;;;9.30;59.74;101141.03;5588918;31;33657;-55
2022/11/30 16:32:56;;;;;;;7.95;5.07;;;;;;;9.36;52.32;101136.56;5588652;31;33788;-55
2022/11/30 16:36:01;;;;;;;8.93;4.80;;;;;;;9.77;55.89;101120.88;5588861;31;33727;-55
2022/11/30 16:39:04;;;;;;;9.82;5.32;;;;;;;9.75;66.16;101123.78;5588742;31;33795;-55
